Time;durP1;ratioP1;P1;durP2;ratioP2;P2;SDS_P1;SDS_P2;PMS_P1;PMS_P2;Temp;Humidity;BMP_temperature;BMP_pressure;BME280_temperature;BME280_humidity;BME280_pressure;Samples;Min_cycle;Max_cycle;Signal;HPM_P1;HPM_P2
2022/04/02 00:00:43;;;;;;;;;2.50;2.50;;;;;3.76;69.76;-18566.09;5018247;28;11534;-71
2022/04/02 00:03:09;;;;;;;;;1.00;1.00;;;;;3.82;68.49;-18567.91;5016303;28;11613;-70
2022/04/02 00:05:37;;;;;;;;;1.00;1.00;;;;;3.77;66.89;-18566.41;5015448;28;11528;-69
2022/04/02 00:08:04;;;;;;;;;4.00;2.00;;;;;3.86;65.88;-18569.13;5015689;28;11464;-70
2022/04/02 00:10:31;;;;;;;;;0.50;0.50;;;;;3.87;65.36;-18569.56;5018566;28;11477;-70
2022/04/02 00:12:57;;;;;;;;;1.00;1.00;;;;;3.84;64.59;-18568.53;5004167;28;11595;-70
2022/04/02 00:15:24;;;;;;;;;1.25;1.25;;;;;3.80;63.67;-18567.31;5016784;28;11448;-68
2022/04/02 00:17:50;;;;;;;;;0.75;0.75;;;;;3.91;62.86;-18570.63;5018370;28;11427;-71
2022/04/02 00:20:17;;;;;;;;;1.00;1.00;;;;;3.87;62.34;-18569.44;5017834;28;11625;-71
2022/04/02 00:25:29;;;;;;;;;1.00;1.00;;;;;3.91;62.52;-18570.63;5035108;28;11529;-68
2022/04/02 00:27:56;;;;;;;;;0.00;0.00;;;;;3.91;62.98;-18570.63;5017335;28;11464;-72
2022/04/02 00:30:22;;;;;;;;;1.25;1.25;;;;;3.96;63.95;-18572.16;5020389;28;11469;-69
2022/04/02 00:32:49;;;;;;;;;1.00;0.25;;;;;3.89;65.71;-18570.03;5022317;28;11508;-69
2022/04/02 00:35:15;;;;;;;;;1.25;1.25;;;;;3.78;67.27;-18566.72;5016872;28;11564;-70
2022/04/02 00:37:42;;;;;;;;;0.00;0.00;;;;;3.78;67.84;-18566.72;5018628;28;11564;-70
2022/04/02 00:40:09;;;;;;;;;3.00;1.00;;;;;3.75;69.26;-18565.94;5000393;28;11559;-70
2022/04/02 00:42:36;;;;;;;;;2.50;1.00;;;;;3.68;69.69;-18563.81;5019277;28;11472;-68
2022/04/02 00:45:03;;;;;;;;;4.25;1.25;;;;;3.65;70.73;-18563.06;5015273;28;11468;-69
2022/04/02 00:47:29;;;;;;;;;4.50;2.00;;;;;3.63;70.99;-18562.47;5020484;28;11661;-69
2022/04/02 00:49:57;;;;;;;;;1.00;1.00;;;;;3.60;71.52;-18561.56;5019505;28;13719;-68
2022/04/02 00:52:27;;;;;;;;;2.50;1.25;;;;;3.56;71.70;-18560.19;5019743;28;12339;-68
2022/04/02 00:54:53;;;;;;;;;1.50;1.00;;;;;3.55;71.96;-18560.03;5022143;28;11444;-70
2022/04/02 00:57:20;;;;;;;;;2.00;2.00;;;;;3.54;72.90;-18559.59;5015723;28;11468;-69
2022/04/02 00:59:47;;;;;;;;;2.50;2.50;;;;;3.47;72.64;-18557.63;5017566;28;11438;-70
2022/04/02 01:02:14;;;;;;;;;4.00;2.00;;;;;3.56;73.06;-18560.19;5015079;28;11466;-72
2022/04/02 01:04:41;;;;;;;;;1.25;1.25;;;;;3.53;73.22;-18559.28;5019552;28;11483;-72
2022/04/02 01:07:10;;;;;;;;;1.00;1.00;;;;;3.50;73.66;-18558.53;5019448;28;11478;-70
2022/04/02 01:09:39;;;;;;;;;1.00;1.00;;;;;3.51;74.21;-18558.69;5018162;28;12173;-70
2022/04/02 01:12:08;;;;;;;;;0.75;0.75;;;;;3.51;74.06;-18558.69;5015036;28;11432;-69
2022/04/02 01:14:38;;;;;;;;;1.00;1.00;;;;;3.55;74.28;-18560.03;5014766;28;11445;-69
2022/04/02 01:17:17;;;;;;;;;5.25;2.00;;;;;3.43;74.35;-18556.41;5030247;28;11443;-69
2022/04/02 01:19:45;;;;;;;;;1.00;1.00;;;;;3.43;74.39;-18556.41;5018339;28;11465;-69
2022/04/02 01:22:22;;;;;;;;;2.00;1.00;;;;;3.25;71.01;-18551.13;5017010;28;12302;-68
2022/04/02 01:24:51;;;;;;;;;1.00;1.00;;;;;3.33;70.11;-18553.38;5016465;28;11454;-69
2022/04/02 01:27:19;;;;;;;;;1.75;1.75;;;;;3.35;70.37;-18554.00;5018494;28;11458;-69
2022/04/02 01:29:52;;;;;;;;;0.75;0.75;;;;;3.30;70.91;-18552.47;5011397;28;11578;-69
2022/04/02 01:32:21;;;;;;;;;1.75;1.75;;;;;3.33;67.61;-18553.53;5009590;28;11511;-69
2022/04/02 01:34:55;;;;;;;;;3.00;2.00;;;;;3.33;63.31;-18553.53;5020151;28;11675;-70
2022/04/02 01:37:21;;;;;;;;;2.00;1.00;;;;;3.44;61.85;-18556.56;5019405;28;11553;-71
2022/04/02 01:39:54;;;;;;;;;1.25;1.25;;;;;3.52;62.28;-18559.13;5019445;28;12215;-69
2022/04/02 01:42:24;;;;;;;;;1.25;1.25;;;;;3.52;62.27;-18558.97;5020286;28;11470;-70
2022/04/02 01:45:06;;;;;;;;;2.50;1.75;;;;;3.51;65.38;-18558.69;5015222;28;11494;-69
2022/04/02 01:47:43;;;;;;;;;1.50;1.50;;;;;3.52;67.05;-18559.13;5016970;28;11453;-69
2022/04/02 01:50:10;;;;;;;;;3.00;1.00;;;;;3.36;68.88;-18554.44;5018283;28;11460;-68
2022/04/02 01:52:41;;;;;;;;;2.00;2.00;;;;;3.39;69.08;-18555.19;5016120;28;11484;-67
2022/04/02 01:55:13;;;;;;;;;1.00;1.00;;;;;3.40;68.94;-18555.50;5016727;28;11594;-69
2022/04/02 01:57:45;;;;;;;;;3.50;1.00;;;;;3.31;68.43;-18552.94;5018428;28;11569;-70
2022/04/02 02:00:16;;;;;;;;;1.00;1.00;;;;;3.30;69.62;-18552.47;5014917;28;11471;-69
2022/04/02 02:02:45;;;;;;;;;2.00;2.00;;;;;3.31;70.20;-18552.78;5012474;28;11548;-68
2022/04/02 02:05:12;;;;;;;;;1.00;1.00;;;;;3.35;70.88;-18554.00;5014203;28;11534;-69
2022/04/02 02:07:47;;;;;;;;;1.00;1.00;;;;;3.31;71.12;-18552.78;5014096;28;11467;-70
2022/04/02 02:10:15;;;;;;;;;1.75;1.00;;;;;3.20;72.21;-18549.44;5029660;28;12241;-70
2022/04/02 02:12:57;;;;;;;;;4.50;2.00;;;;;3.15;72.90;-18548.09;5004165;28;11525;-70
2022/04/02 02:15:30;;;;;;;;;1.00;1.00;;;;;3.26;72.92;-18551.25;5028987;28;11514;-68
2022/04/02 02:18:01;;;;;;;;;1.50;0.00;;;;;3.28;73.01;-18551.88;5017289;28;11515;-69
2022/04/02 02:20:28;;;;;;;;;4.00;4.00;;;;;3.32;73.06;-18553.22;5018186;28;11448;-70
2022/04/02 02:22:54;;;;;;;;;2.00;1.00;;;;;3.39;73.15;-18555.34;5017608;28;11598;-68
2022/04/02 02:25:21;;;;;;;;;2.00;1.25;;;;;3.35;72.42;-18554.00;5018211;28;11597;-68
2022/04/02 02:27:52;;;;;;;;;0.00;0.00;;;;;3.43;72.77;-18556.41;5016152;28;11488;-69
2022/04/02 02:30:22;;;;;;;;;3.50;2.00;;;;;3.27;71.78;-18551.56;5013353;28;11582;-69
2022/04/02 02:35:49;;;;;;;;;1.25;1.25;;;;;3.36;71.81;-18554.44;4998642;28;11460;-69
2022/04/02 02:35:49;;;;;;;;;2.00;1.00;;;;;3.47;71.83;-18557.47;5030677;28;11470;-72
2022/04/02 02:38:21;;;;;;;;;1.00;1.00;;;;;3.43;71.74;-18556.25;5027279;28;11481;-69
2022/04/02 02:40:58;;;;;;;;;1.00;1.00;;;;;3.44;71.51;-18556.72;5016642;28;11561;-70
2022/04/02 02:43:31;;;;;;;;;2.00;1.50;;;;;3.33;71.49;-18553.38;5015745;28;12203;-70
2022/04/02 02:46:08;;;;;;;;;1.25;1.25;;;;;3.39;71.67;-18555.34;5019073;28;11437;-70
2022/04/02 02:48:35;;;;;;;;;1.75;1.00;;;;;3.38;71.00;-18555.03;5004678;28;11568;-72
2022/04/02 02:51:01;;;;;;;;;2.00;1.00;;;;;3.38;70.90;-18554.91;5032444;28;11470;-69
2022/04/02 02:53:28;;;;;;;;;0.25;0.25;;;;;3.32;70.67;-18553.22;5019426;28;11567;-71
2022/04/02 02:55:54;;;;;;;;;1.00;1.00;;;;;3.42;70.93;-18555.94;5021855;28;12081;-70
2022/04/02 02:58:21;;;;;;;;;4.00;3.00;;;;;3.28;69.88;-18552.03;5019960;28;11462;-71
2022/04/02 03:00:47;;;;;;;;;4.25;3.50;;;;;3.35;70.58;-18554.13;5017498;28;11428;-69
2022/04/02 03:03:19;;;;;;;;;0.00;0.00;;;;;3.28;70.06;-18552.03;5022780;28;11514;-70
2022/04/02 03:05:49;;;;;;;;;0.50;0.50;;;;;3.38;70.76;-18554.91;5019941;28;11469;-69
2022/04/02 03:08:18;;;;;;;;;1.25;0.75;;;;;3.26;70.58;-18551.41;5022060;28;11452;-69
2022/04/02 03:10:50;;;;;;;;;1.25;1.25;;;;;3.27;70.95;-18551.72;5021313;28;11445;-70
2022/04/02 03:13:23;;;;;;;;;4.75;2.00;;;;;3.21;70.17;-18549.91;5018072;28;11457;-69
2022/04/02 03:15:53;;;;;;;;;1.50;1.50;;;;;3.34;69.89;-18553.84;5018796;28;11522;-68
2022/04/02 03:18:21;;;;;;;;;0.00;0.00;;;;;3.36;69.48;-18554.44;5015115;28;11464;-69
2022/04/02 03:20:47;;;;;;;;;2.50;2.50;;;;;3.32;69.13;-18553.22;5014736;28;11440;-69
2022/04/02 03:23:22;;;;;;;;;1.00;1.00;;;;;3.35;69.01;-18554.00;5018067;28;11449;-68
2022/04/02 03:25:48;;;;;;;;;5.75;1.75;;;;;3.24;68.73;-18550.81;5019776;28;11465;-71
2022/04/02 03:28:16;;;;;;;;;6.00;1.00;;;;;3.20;68.02;-18549.44;5018441;28;12191;-69
2022/04/02 03:30:44;;;;;;;;;0.00;0.00;;;;;3.15;67.67;-18547.94;5005385;28;11471;-69
2022/04/02 03:33:11;;;;;;;;;3.50;1.75;;;;;3.21;68.35;-18549.75;5020898;28;11479;-70
2022/04/02 03:35:39;;;;;;;;;4.00;4.00;;;;;3.15;67.56;-18547.94;5018016;28;11463;-70
2022/04/02 03:38:08;;;;;;;;;1.00;1.00;;;;;3.18;67.38;-18548.84;5014971;28;11500;-68
2022/04/02 03:40:38;;;;;;;;;4.25;2.00;;;;;3.23;67.98;-18550.34;5019026;28;11557;-69
2022/04/02 03:43:08;;;;;;;;;2.00;2.00;;;;;3.22;68.04;-18550.06;5031546;28;11492;-68
2022/04/02 03:45:35;;;;;;;;;3.00;2.50;;;;;3.13;67.80;-18547.31;5019973;28;11469;-71
2022/04/02 03:48:04;;;;;;;;;2.00;2.00;;;;;3.20;67.34;-18549.59;5019607;28;11455;-70
2022/04/02 03:50:37;;;;;;;;;3.50;3.50;;;;;3.09;66.95;-18546.41;5015658;28;11460;-69
2022/04/02 03:53:05;;;;;;;;;1.75;1.00;;;;;3.04;67.59;-18544.75;5017635;28;11442;-69
2022/04/02 03:55:42;;;;;;;;;5.75;5.75;;;;;2.98;67.59;-18542.94;5019942;28;11453;-68
2022/04/02 03:58:20;;;;;;;;;2.75;2.00;;;;;3.04;67.58;-18544.75;5021641;28;11489;-69
2022/04/02 04:00:46;;;;;;;;;5.00;2.00;;;;;3.07;68.12;-18545.81;5016792;28;11572;-71
2022/04/02 04:03:16;;;;;;;;;1.00;1.00;;;;;2.98;67.05;-18543.09;5033893;28;11522;-69
2022/04/02 04:05:47;;;;;;;;;4.75;3.00;;;;;2.95;67.66;-18542.03;5024184;28;11450;-72
2022/04/02 04:08:14;;;;;;;;;2.00;2.00;;;;;3.01;67.83;-18543.84;5029476;28;12216;-68
2022/04/02 04:10:42;;;;;;;;;5.00;2.00;;;;;2.99;67.65;-18543.41;5020262;28;11463;-69
2022/04/02 04:13:11;;;;;;;;;3.50;1.75;;;;;3.00;67.88;-18543.69;5018477;28;11481;-70
2022/04/02 04:15:40;;;;;;;;;0.00;0.00;;;;;3.09;67.61;-18546.28;5031449;28;12295;-71
2022/04/02 04:18:08;;;;;;;;;1.50;1.50;;;;;3.02;67.06;-18544.16;5016626;28;11603;-72
2022/04/02 04:20:38;;;;;;;;;2.00;2.00;;;;;3.05;67.01;-18545.06;5019017;28;11489;-71
2022/04/02 04:23:07;;;;;;;;;4.00;4.00;;;;;2.94;66.93;-18541.72;5017216;28;11495;-70
2022/04/02 04:25:35;;;;;;;;;1.25;1.25;;;;;2.96;66.97;-18542.31;5043345;23;11597;-71
2022/04/02 04:28:03;;;;;;;;;1.00;1.00;;;;;2.93;66.98;-18541.56;5053469;28;11455;-71
2022/04/02 04:30:30;;;;;;;;;4.00;1.00;;;;;2.97;66.87;-18542.63;5049331;28;11547;-70
2022/04/02 04:32:57;;;;;;;;;1.50;1.50;;;;;3.00;67.13;-18543.53;5051828;28;11450;-71
2022/04/02 04:35:29;;;;;;;;;1.75;1.75;;;;;2.97;67.51;-18542.78;5051726;28;11502;-71
2022/04/02 04:37:56;;;;;;;;;4.00;2.50;;;;;2.88;67.62;-18540.06;5042667;28;11461;-69
2022/04/02 04:40:26;;;;;;;;;2.00;2.00;;;;;2.84;67.37;-18538.84;5031102;28;12256;-70
2022/04/02 04:42:54;;;;;;;;;2.00;2.00;;;;;2.78;67.42;-18537.03;5004470;28;11553;-70
2022/04/02 04:45:30;;;;;;;;;4.00;4.00;;;;;2.78;68.14;-18537.19;5013922;28;11511;-70
2022/04/02 04:47:56;;;;;;;;;4.00;4.00;;;;;2.82;67.58;-18538.25;5030118;28;11441;-69
2022/04/02 04:50:24;;;;;;;;;2.00;2.00;;;;;2.83;67.44;-18538.41;5038872;28;12184;-69
2022/04/02 04:52:55;;;;;;;;;3.00;1.75;;;;;2.89;67.33;-18540.22;5030635;28;11415;-69
2022/04/02 04:55:21;;;;;;;;;1.50;1.50;;;;;2.90;67.56;-18540.66;5029689;28;11466;-70
2022/04/02 04:57:49;;;;;;;;;2.50;2.50;;;;;2.93;67.30;-18541.56;5034143;28;11463;-69
2022/04/02 05:00:23;;;;;;;;;3.00;3.00;;;;;2.84;66.46;-18538.84;5038986;28;11494;-71
2022/04/02 05:02:50;;;;;;;;;5.25;2.00;;;;;2.88;66.39;-18540.06;5029578;28;11543;-71
2022/04/02 05:05:23;;;;;;;;;5.50;3.00;;;;;2.78;66.85;-18537.19;5028792;28;11537;-70
2022/04/02 05:07:59;;;;;;;;;2.00;2.00;;;;;2.77;66.46;-18536.88;5031003;28;11459;-71
2022/04/02 05:10:27;;;;;;;;;4.50;4.00;;;;;2.77;66.84;-18536.72;5027974;28;11576;-71
2022/04/02 05:12:55;;;;;;;;;2.00;2.00;;;;;2.92;66.82;-18541.13;5026024;28;12127;-70
2022/04/02 05:15:23;;;;;;;;;0.75;0.75;;;;;2.97;66.90;-18542.78;5045068;28;11460;-69
2022/04/02 05:17:51;;;;;;;;;2.00;2.00;;;;;2.87;66.39;-18539.59;5031705;28;11456;-69
2022/04/02 05:20:18;;;;;;;;;4.00;2.00;;;;;2.86;66.49;-18539.44;5033238;28;11454;-71
2022/04/02 05:22:47;;;;;;;;;7.25;2.00;;;;;2.87;66.69;-18539.59;5030336;28;11475;-69
2022/04/02 05:25:16;;;;;;;;;4.00;4.00;;;;;2.94;66.39;-18541.88;5037341;28;11477;-69
2022/04/02 05:27:44;;;;;;;;;5.25;1.50;;;;;2.94;66.59;-18541.72;5026154;28;11576;-72
2022/04/02 05:30:12;;;;;;;;;1.50;1.50;;;;;3.04;66.27;-18544.75;5027692;28;11474;-71
2022/04/02 05:32:39;;;;;;;;;1.00;1.00;;;;;3.05;66.58;-18545.06;5031386;28;11485;-70
2022/04/02 05:35:07;;;;;;;;;2.00;2.00;;;;;2.88;65.27;-18539.91;5031560;28;11530;-71
2022/04/02 05:37:42;;;;;;;;;6.00;4.00;;;;;2.95;65.22;-18542.03;5031528;28;11430;-69
2022/04/02 05:40:09;;;;;;;;;3.00;1.50;;;;;2.92;64.78;-18541.28;5038179;28;11459;-68
2022/04/02 05:42:36;;;;;;;;;4.50;2.50;;;;;2.86;64.54;-18539.31;5045897;28;11457;-68
2022/04/02 05:45:03;;;;;;;;;3.00;2.50;;;;;2.88;64.46;-18539.91;5044812;28;11433;-68
2022/04/02 05:47:40;;;;;;;;;5.75;4.00;;;;;2.91;63.95;-18540.81;5045195;28;11477;-71
2022/04/02 05:50:09;;;;;;;;;5.00;2.50;;;;;2.96;63.77;-18542.47;5028713;28;11490;-71
2022/04/02 05:52:55;;;;;;;;;3.50;1.75;;;;;3.13;64.36;-18547.47;5028323;28;11454;-72
2022/04/02 05:55:22;;;;;;;;;1.50;1.00;;;;;3.20;64.09;-18549.59;5030802;28;11440;-71
2022/04/02 05:57:49;;;;;;;;;4.00;2.00;;;;;3.19;62.90;-18549.28;5031811;28;11495;-71
2022/04/02 06:00:17;;;;;;;;;1.25;1.25;;;;;3.32;63.07;-18553.22;5025823;28;12269;-72
2022/04/02 06:02:45;;;;;;;;;1.00;1.00;;;;;3.31;62.43;-18552.94;5026849;28;11608;-73
2022/04/02 06:05:13;;;;;;;;;4.00;1.75;;;;;3.36;62.18;-18554.28;5032568;28;11563;-70
2022/04/02 06:07:41;;;;;;;;;2.00;2.00;;;;;3.43;60.39;-18556.41;5035615;28;11470;-70
2022/04/02 06:10:09;;;;;;;;;3.50;1.25;;;;;3.93;57.87;-18571.25;5027732;28;11416;-70
2022/04/02 06:12:35;;;;;;;;;1.25;1.00;;;;;3.88;56.42;-18569.72;5043200;28;11553;-70
2022/04/02 06:15:02;;;;;;;;;0.75;0.75;;;;;3.93;55.73;-18571.41;5029728;28;11566;-71
2022/04/02 06:17:29;;;;;;;;;1.75;0.00;;;;;4.25;54.54;-18580.78;5030979;28;11561;-69
2022/04/02 06:19:55;;;;;;;;;0.00;0.00;;;;;4.41;54.28;-18585.47;5029239;28;12221;-70
2022/04/02 06:22:22;;;;;;;;;0.50;0.50;;;;;4.66;52.49;-18593.03;5028554;28;12181;-70
2022/04/02 06:24:48;;;;;;;;;2.00;1.00;;;;;4.34;52.85;-18583.50;5029418;28;11514;-71
2022/04/02 06:27:16;;;;;;;;;0.25;0.25;;;;;4.42;51.12;-18585.78;5031027;28;11441;-71
2022/04/02 06:29:42;;;;;;;;;0.00;0.00;;;;;4.61;50.39;-18591.66;5025848;28;11609;-71
2022/04/02 06:32:09;;;;;;;;;0.75;0.75;;;;;4.82;50.51;-18597.72;5031586;28;11606;-70
2022/04/02 06:34:35;;;;;;;;;0.00;0.00;;;;;4.55;50.26;-18589.84;5030761;28;11438;-70
2022/04/02 06:37:02;;;;;;;;;1.00;0.00;;;;;4.82;51.27;-18597.72;5036015;28;11467;-69
2022/04/02 06:39:29;;;;;;;;;0.25;0.00;;;;;4.67;51.38;-18593.19;5027421;28;11513;-69
2022/04/02 06:41:55;;;;;;;;;0.00;0.00;;;;;4.59;49.87;-18591.06;5027577;28;11433;-69
2022/04/02 06:44:30;;;;;;;;;1.00;1.00;;;;;4.59;50.89;-18591.06;5026023;28;11573;-70
2022/04/02 06:46:59;;;;;;;;;0.75;0.00;;;;;4.49;50.94;-18587.88;5036667;28;12369;-68
2022/04/02 06:49:26;;;;;;;;;1.00;1.00;;;;;4.42;51.46;-18585.78;5026434;28;12176;-70
2022/04/02 06:51:53;;;;;;;;;0.25;0.00;;;;;4.56;51.38;-18590.16;5025552;28;11550;-70
2022/04/02 06:54:20;;;;;;;;;0.00;0.00;;;;;4.82;49.32;-18597.88;5026631;28;11454;-70
2022/04/02 06:56:48;;;;;;;;;1.00;1.00;;;;;4.70;47.59;-18594.09;5025580;28;11448;-69
2022/04/02 06:59:15;;;;;;;;;0.00;0.00;;;;;5.03;46.88;-18604.06;5024066;28;11573;-69
2022/04/02 07:01:41;;;;;;;;;0.50;0.50;;;;;5.22;47.78;-18609.81;5029646;28;11468;-71
2022/04/02 07:04:11;;;;;;;;;0.75;0.00;;;;;4.76;48.11;-18595.91;5026434;28;11458;-69
2022/04/02 07:06:44;;;;;;;;;0.00;0.00;;;;;5.08;48.66;-18605.59;5039363;28;11437;-69
2022/04/02 07:09:12;;;;;;;;;0.00;0.00;;;;;5.36;48.52;-18613.91;5048464;28;11460;-70
2022/04/02 07:11:38;;;;;;;;;1.00;0.00;;;;;5.43;47.36;-18616.03;5039806;28;11482;-69
2022/04/02 07:14:05;;;;;;;;;1.25;1.00;;;;;5.01;48.64;-18603.47;5029960;28;11572;-70
2022/04/02 07:16:31;;;;;;;;;2.25;2.00;;;;;4.61;49.45;-18591.53;5034753;28;12276;-70
2022/04/02 07:19:00;;;;;;;;;2.00;1.00;;;;;4.75;50.54;-18595.59;5028701;28;11433;-70
2022/04/02 07:21:27;;;;;;;;;2.00;0.00;;;;;5.13;50.23;-18607.09;5029483;28;11492;-69
2022/04/02 07:23:55;;;;;;;;;2.50;1.00;;;;;5.21;49.96;-18609.38;5026361;28;11553;-69
2022/04/02 07:26:22;;;;;;;;;1.00;1.00;;;;;5.24;49.70;-18610.28;5034012;28;11440;-71
2022/04/02 07:28:50;;;;;;;;;0.00;0.00;;;;;5.51;48.87;-18618.44;5040330;28;11495;-70
2022/04/02 07:31:17;;;;;;;;;0.00;0.00;;;;;5.16;47.78;-18608.00;5048945;28;11416;-69
2022/04/02 07:33:43;;;;;;;;;0.00;0.00;;;;;5.34;49.01;-18613.31;5045950;28;11499;-70
2022/04/02 07:36:23;;;;;;;;;0.00;0.00;;;;;5.44;49.55;-18616.19;5042288;28;11556;-70
2022/04/02 07:39:01;;;;;;;;;2.00;1.00;;;;;5.19;49.69;-18608.75;5032934;28;12365;-70
2022/04/02 07:41:48;;;;;;;;;0.75;0.00;;;;;5.44;49.06;-18616.19;5046782;28;11428;-70
2022/04/02 07:44:39;;;;;;;;;2.25;0.00;;;;;5.69;47.18;-18623.75;5033077;28;11191;-70
2022/04/02 07:47:13;;;;;;;;;1.00;1.00;;;;;5.69;46.65;-18623.75;5032078;28;11441;-70
2022/04/02 07:49:44;;;;;;;;;2.00;0.75;;;;;5.75;46.64;-18625.41;5031673;28;11252;-70
2022/04/02 07:52:12;;;;;;;;;0.00;0.00;;;;;5.95;45.94;-18631.47;5038524;28;11300;-70
2022/04/02 07:54:42;;;;;;;;;0.50;0.50;;;;;5.81;46.28;-18627.38;5042051;28;11198;-69
2022/04/02 07:57:09;;;;;;;;;1.00;1.00;;;;;5.76;47.73;-18625.84;5040149;28;11170;-70
2022/04/02 07:59:50;;;;;;;;;0.00;0.00;;;;;5.87;47.62;-18629.03;5050359;28;11248;-68
2022/04/02 08:05:04;;;;;;;;;1.00;0.00;;;;;6.67;45.53;-18652.78;5032701;28;11202;-70
2022/04/02 08:07:32;;;;;;;;;0.00;0.00;;;;;6.31;45.48;-18642.19;5032498;28;11195;-70
2022/04/02 08:10:01;;;;;;;;;0.75;0.00;;;;;6.51;45.95;-18647.94;5038861;28;11107;-69
2022/04/02 08:12:29;;;;;;;;;0.25;0.25;;;;;6.25;47.46;-18640.38;5048904;28;11212;-70
2022/04/02 08:14:55;;;;;;;;;1.00;1.00;;;;;6.59;47.61;-18650.34;5050943;28;11096;-69
2022/04/02 08:17:22;;;;;;;;;0.50;0.50;;;;;6.68;47.05;-18653.22;5051028;28;11057;-69
2022/04/02 08:19:50;;;;;;;;;1.00;1.00;;;;;6.79;44.91;-18656.41;5034465;28;11780;-70
2022/04/02 08:22:19;;;;;;;;;4.00;1.00;;;;;6.32;45.83;-18642.50;5035181;28;11177;-70
2022/04/02 08:24:46;;;;;;;;;2.00;1.75;;;;;6.56;47.01;-18649.59;5030842;28;11246;-70
2022/04/02 08:27:36;;;;;;;;;1.00;1.00;;;;;6.97;46.61;-18661.84;5033539;28;11274;-70
2022/04/02 08:30:09;;;;;;;;;0.75;0.75;;;;;7.13;45.92;-18666.53;5038183;28;11831;-70
2022/04/02 08:32:55;;;;;;;;;1.00;1.00;;;;;7.26;45.15;-18670.47;5032268;28;11022;-69
2022/04/02 08:35:47;;;;;;;;;7.75;4.00;;;;;7.27;45.68;-18670.59;5035492;28;10856;-69
2022/04/02 08:39:09;;;;;;;;;3.00;2.00;;;;;7.08;44.39;-18665.00;5050427;28;11007;-69
2022/04/02 08:42:08;;;;;;;;;1.00;1.00;;;;;7.29;45.61;-18671.38;4972443;28;10990;-70
2022/04/02 08:44:46;;;;;;;;;0.00;0.00;;;;;7.22;44.55;-18669.25;5004839;28;11025;-71
2022/04/02 08:47:54;;;;;;;;;2.50;0.25;;;;;7.51;43.13;-18677.88;5038956;28;10968;-70
2022/04/02 08:50:28;;;;;;;;;2.25;0.00;;;;;7.03;41.97;-18663.50;5020971;28;11005;-70
2022/04/02 08:53:19;;;;;;;;;0.00;0.00;;;;;7.02;42.73;-18663.19;5018049;28;10948;-70
2022/04/02 08:56:02;;;;;;;;;1.00;0.75;;;;;7.60;40.99;-18680.59;5040210;28;10954;-69
2022/04/02 08:58:43;;;;;;;;;1.75;1.00;;;;;7.83;42.74;-18687.22;5038593;28;11046;-69
2022/04/02 09:01:20;;;;;;;;;0.00;0.00;;;;;8.25;41.06;-18699.91;5050674;28;11086;-69
2022/04/02 09:04:24;;;;;;;;;0.00;0.00;;;;;8.37;40.75;-18703.25;5051486;28;10947;-71
2022/04/02 09:07:31;;;;;;;;;2.00;0.75;;;;;9.07;39.08;-18724.09;5034700;28;10729;-69
2022/04/02 09:10:15;;;;;;;;;1.00;1.00;;;;;8.88;37.90;-18718.50;5014352;28;11533;-70
2022/04/02 09:13:10;;;;;;;;;1.00;0.25;;;;;8.57;38.17;-18709.28;5041610;28;10871;-69
2022/04/02 09:15:50;;;;;;;;;1.25;1.25;;;;;7.62;38.58;-18681.03;5042402;28;10486;-70
2022/04/02 09:18:35;;;;;;;;;2.75;1.00;;;;;8.11;38.88;-18695.69;5044374;28;10718;-69
2022/04/02 09:21:27;;;;;;;;;1.00;1.00;;;;;7.69;40.40;-18683.31;5031144;28;10770;-71
2022/04/02 09:24:16;;;;;;;;;0.75;0.75;;;;;8.30;40.00;-18701.28;5028104;28;10754;-70
2022/04/02 09:26:42;;;;;;;;;0.00;0.00;;;;;8.31;38.74;-18701.72;5046705;28;10738;-69
2022/04/02 09:29:28;;;;;;;;;0.25;0.25;;;;;8.42;39.12;-18704.91;5030599;28;10868;-69
2022/04/02 09:32:31;;;;;;;;;4.00;4.00;;;;;7.74;41.01;-18684.66;5031233;28;10795;-69
2022/04/02 09:35:31;;;;;;;;;2.00;1.75;;;;;7.71;41.16;-18683.91;5030564;28;10779;-69
2022/04/02 09:38:18;;;;;;;;;2.50;1.00;;;;;7.59;41.17;-18680.13;5029470;28;10943;-69
2022/04/02 09:40:48;;;;;;;;;0.00;0.00;;;;;8.05;39.77;-18693.88;5043697;28;10571;-69
2022/04/02 09:43:38;;;;;;;;;1.00;0.00;;;;;7.58;40.42;-18679.81;5046883;28;10840;-70
2022/04/02 09:46:10;;;;;;;;;1.00;1.00;;;;;8.42;40.18;-18704.75;5044153;28;10703;-70
2022/04/02 09:48:47;;;;;;;;;1.00;1.00;;;;;7.86;40.22;-18688.28;5027388;28;10824;-69
2022/04/02 09:51:17;;;;;;;;;0.00;0.00;;;;;8.35;40.84;-18702.63;5038830;28;10716;-70
2022/04/02 09:53:58;;;;;;;;;1.00;1.00;;;;;7.85;42.53;-18687.97;5039783;28;11422;-71
2022/04/02 09:56:34;;;;;;;;;2.00;1.25;;;;;7.77;43.42;-18685.56;5040114;28;10804;-70
2022/04/02 09:59:28;;;;;;;;;2.00;2.00;;;;;7.32;43.15;-18672.13;5044557;28;10867;-70
2022/04/02 10:02:01;;;;;;;;;0.75;0.75;;;;;7.53;43.75;-18678.47;5009027;28;10891;-71
2022/04/02 10:04:41;;;;;;;;;1.75;1.00;;;;;7.26;42.77;-18670.47;5026736;28;10697;-71
2022/04/02 10:07:49;;;;;;;;;2.00;2.00;;;;;8.21;40.80;-18698.72;5026162;28;10809;-70
2022/04/02 10:10:19;;;;;;;;;0.00;0.00;;;;;8.08;39.72;-18694.63;5014171;28;10944;-69
2022/04/02 10:12:48;;;;;;;;;0.00;0.00;;;;;8.29;41.66;-18700.97;5043692;28;10724;-70
2022/04/02 10:15:19;;;;;;;;;5.00;2.00;;;;;8.56;40.40;-18708.97;5024808;28;11304;-70
2022/04/02 10:17:53;;;;;;;;;0.75;0.75;;;;;8.77;39.12;-18715.19;5033197;28;11366;-69
2022/04/02 10:20:23;;;;;;;;;1.00;1.00;;;;;8.94;38.82;-18720.47;5027672;28;10592;-69
2022/04/02 10:23:14;;;;;;;;;0.00;0.00;;;;;8.51;38.92;-18707.63;5031894;28;10507;-70
2022/04/02 10:26:03;;;;;;;;;2.50;1.50;;;;;8.70;38.02;-18713.22;5027891;28;10562;-70
2022/04/02 10:28:32;;;;;;;;;0.25;0.00;;;;;8.33;39.17;-18702.19;5027838;28;10477;-71
2022/04/02 10:31:01;;;;;;;;;0.50;0.50;;;;;8.36;38.63;-18702.94;5032356;28;10577;-69
2022/04/02 10:33:34;;;;;;;;;2.00;1.00;;;;;8.71;39.54;-18713.38;5024173;28;10582;-70
2022/04/02 10:36:03;;;;;;;;;2.50;2.00;;;;;9.21;38.47;-18728.31;5034177;28;10745;-69
2022/04/02 10:38:39;;;;;;;;;1.00;1.00;;;;;9.10;38.63;-18725.00;5031183;28;10528;-69
2022/04/02 10:41:16;;;;;;;;;1.00;1.00;;;;;9.13;39.35;-18725.91;5008128;28;10529;-69
2022/04/02 10:43:51;;;;;;;;;3.00;1.00;;;;;8.47;41.06;-18706.41;5026926;28;10494;-69
2022/04/02 10:46:22;;;;;;;;;2.75;2.75;;;;;8.96;41.89;-18720.75;5009383;28;10532;-69
2022/04/02 10:49:05;;;;;;;;;2.75;2.50;;;;;8.82;39.69;-18716.69;5043783;28;11274;-69
2022/04/02 10:51:36;;;;;;;;;2.00;2.00;;;;;8.37;39.57;-18703.41;5036822;28;10495;-68
2022/04/02 10:54:10;;;;;;;;;4.00;4.00;;;;;8.83;40.73;-18717.13;5046952;28;11445;-68
2022/04/02 10:56:43;;;;;;;;;2.00;1.00;;;;;8.66;39.89;-18712.00;5031392;28;10608;-69
2022/04/02 10:59:12;;;;;;;;;1.00;1.00;;;;;8.10;39.52;-18695.22;5029497;28;10571;-68
2022/04/02 11:01:41;;;;;;;;;3.00;2.75;;;;;8.47;39.05;-18706.41;5033248;28;10594;-69
2022/04/02 11:04:30;;;;;;;;;3.25;2.00;;;;;9.02;39.69;-18722.72;5028011;28;10653;-69
2022/04/02 11:06:58;;;;;;;;;1.00;1.00;;;;;9.49;40.23;-18736.63;5033010;28;10590;-69
2022/04/02 11:09:25;;;;;;;;;2.00;2.00;;;;;9.41;39.79;-18734.34;5033119;28;10506;-69
2022/04/02 11:11:52;;;;;;;;;0.75;0.75;;;;;9.32;39.55;-18731.63;5039231;28;10439;-70
2022/04/02 11:14:24;;;;;;;;;1.50;1.50;;;;;8.29;38.88;-18700.97;5031607;28;10518;-69
2022/04/02 11:16:50;;;;;;;;;0.00;0.00;;;;;8.41;39.39;-18704.59;5042757;28;10445;-70
2022/04/02 11:22:12;;;;;;;;;1.00;1.00;;;;;8.45;39.59;-18705.66;5032005;28;10377;-69
2022/04/02 11:25:03;;;;;;;;;0.00;0.00;;;;;8.83;39.74;-18717.13;5033106;28;10361;-70
2022/04/02 11:27:34;;;;;;;;;2.25;0.75;;;;;8.52;39.29;-18707.78;5038504;28;10461;-70
2022/04/02 11:30:05;;;;;;;;;4.25;1.00;;;;;8.30;39.19;-18701.28;5030924;28;10217;-69
2022/04/02 11:32:43;;;;;;;;;2.00;1.00;;;;;8.23;37.67;-18699.16;5034038;28;10422;-70
2022/04/02 11:35:16;;;;;;;;;0.25;0.25;;;;;8.15;37.03;-18696.91;5029860;28;10427;-69
2022/04/02 11:37:52;;;;;;;;;1.75;1.00;;;;;8.51;37.28;-18707.63;5037014;28;10278;-69
2022/04/02 11:40:20;;;;;;;;;1.25;0.50;;;;;8.78;36.93;-18715.63;5022635;28;10493;-70
2022/04/02 11:42:47;;;;;;;;;0.00;0.00;;;;;9.16;35.80;-18726.94;5038949;28;10349;-70
2022/04/02 11:45:22;;;;;;;;;0.00;0.00;;;;;9.22;34.61;-18728.63;5040283;28;10527;-69
2022/04/02 11:47:51;;;;;;;;;0.75;0.75;;;;;9.19;33.97;-18727.88;5038355;28;10278;-69
2022/04/02 11:50:26;;;;;;;;;2.00;2.00;;;;;9.12;34.98;-18725.59;5040653;28;10425;-71
2022/04/02 11:52:57;;;;;;;;;1.00;1.00;;;;;8.97;36.17;-18721.22;5031691;28;10521;-70
2022/04/02 11:55:26;;;;;;;;;0.50;0.50;;;;;9.34;36.66;-18732.25;5038400;28;10341;-70
2022/04/02 11:58:00;;;;;;;;;2.00;0.50;;;;;9.98;36.20;-18751.09;5045737;28;10386;-71
2022/04/02 12:00:27;;;;;;;;;2.00;1.00;;;;;9.20;35.70;-18728.16;5036123;28;11070;-70
2022/04/02 12:02:54;;;;;;;;;4.00;2.25;;;;;9.13;36.09;-18725.91;5039007;28;11233;-70
2022/04/02 12:05:32;;;;;;;;;1.50;1.00;;;;;9.24;36.54;-18729.22;5043495;28;10314;-69